CYOW/YOW METAR and TAF weather

Enter ICAO airport designator
Station Type Date Time Source
CYOW METAR 2024/07/24 11:00 UTC NOAA

CYOW 241100Z 10008KT 15SM FEW100 SCT170 BKN250 18/18 A3008 RMK AC1AC2CI3 SLP186 DENSITY ALT 700FT


Station Type Date Time Source
CYOW Decoded METAR 2024/07/24 11:00 UTC NOAA

Ottawa Int'L. Ont., Canada (CYOW) 45-19N 075-40W 114M
Jul 24, 2024 - 07:00 AM EDT / 2024.07.24 1100 UTC
Wind: from the E (100 degrees) at 9 MPH (8 KT):0
Visibility: 15 mile(s):0
Sky conditions: mostly cloudy
Temperature: 64 F (18 C)
Dew Point: 64 F (18 C)
Relative Humidity: 100%
Pressure (altimeter): 30.08 in. Hg (1018 hPa)
ob: CYOW 241100Z 10008KT 15SM FEW100 SCT170 BKN250 18/18 A3008 RMK AC1AC2CI3 SLP186 DENSITY ALT 700FT
cycle: 11

Station Type Date Time Source
CYOW TAF 2024/07/24 12:42 UTC NOAA